sensor_id;sensor_type;location;lat;lon;timestamp;P1;durP1;ratioP1;P2;durP2;ratioP2
2546;SDS011;1283;47.982;7.834;2024-01-10T00:00:36;52.40;;;22.55;;
2546;SDS011;1283;47.982;7.834;2024-01-10T00:03:03;52.17;;;22.02;;
2546;SDS011;1283;47.982;7.834;2024-01-10T00:05:29;49.50;;;22.50;;
2546;SDS011;1283;47.982;7.834;2024-01-10T00:07:56;51.10;;;21.83;;
2546;SDS011;1283;47.982;7.834;2024-01-10T00:10:22;52.72;;;22.40;;
2546;SDS011;1283;47.982;7.834;2024-01-10T00:12:50;49.50;;;21.00;;
2546;SDS011;1283;47.982;7.834;2024-01-10T00:15:17;51.85;;;22.58;;
2546;SDS011;1283;47.982;7.834;2024-01-10T00:17:43;54.55;;;21.48;;
2546;SDS011;1283;47.982;7.834;2024-01-10T00:20:10;50.30;;;22.25;;
2546;SDS011;1283;47.982;7.834;2024-01-10T00:22:36;51.70;;;22.27;;
2546;SDS011;1283;47.982;7.834;2024-01-10T00:25:03;54.00;;;21.85;;
2546;SDS011;1283;47.982;7.834;2024-01-10T00:27:29;54.72;;;22.25;;
2546;SDS011;1283;47.982;7.834;2024-01-10T00:29:57;51.63;;;23.20;;
2546;SDS011;1283;47.982;7.834;2024-01-10T00:32:24;49.47;;;22.13;;
2546;SDS011;1283;47.982;7.834;2024-01-10T00:34:50;52.05;;;22.40;;
2546;SDS011;1283;47.982;7.834;2024-01-10T00:37:16;54.33;;;23.63;;
2546;SDS011;1283;47.982;7.834;2024-01-10T00:39:43;53.45;;;22.48;;
2546;SDS011;1283;47.982;7.834;2024-01-10T00:42:09;48.20;;;22.38;;
2546;SDS011;1283;47.982;7.834;2024-01-10T00:44:36;48.75;;;21.30;;
2546;SDS011;1283;47.982;7.834;2024-01-10T00:47:04;46.58;;;21.30;;
2546;SDS011;1283;47.982;7.834;2024-01-10T00:49:30;52.22;;;21.92;;
2546;SDS011;1283;47.982;7.834;2024-01-10T00:51:57;49.92;;;21.73;;
2546;SDS011;1283;47.982;7.834;2024-01-10T00:54:23;51.92;;;22.58;;
2546;SDS011;1283;47.982;7.834;2024-01-10T00:56:49;53.33;;;23.15;;
2546;SDS011;1283;47.982;7.834;2024-01-10T00:59:16;48.63;;;21.58;;
2546;SDS011;1283;47.982;7.834;2024-01-10T01:01:42;54.75;;;22.85;;
2546;SDS011;1283;47.982;7.834;2024-01-10T01:04:10;52.72;;;22.98;;
2546;SDS011;1283;47.982;7.834;2024-01-10T01:06:37;53.42;;;21.95;;
2546;SDS011;1283;47.982;7.834;2024-01-10T01:09:03;47.90;;;22.05;;
2546;SDS011;1283;47.982;7.834;2024-01-10T01:11:29;47.65;;;21.13;;
2546;SDS011;1283;47.982;7.834;2024-01-10T01:13:56;48.67;;;21.33;;
2546;SDS011;1283;47.982;7.834;2024-01-10T01:16:22;49.65;;;21.73;;
2546;SDS011;1283;47.982;7.834;2024-01-10T01:18:49;49.10;;;20.67;;
2546;SDS011;1283;47.982;7.834;2024-01-10T01:21:16;59.72;;;23.40;;
2546;SDS011;1283;47.982;7.834;2024-01-10T01:23:43;59.40;;;23.35;;
2546;SDS011;1283;47.982;7.834;2024-01-10T01:26:09;52.17;;;23.00;;
2546;SDS011;1283;47.982;7.834;2024-01-10T01:28:37;50.70;;;22.70;;
2546;SDS011;1283;47.982;7.834;2024-01-10T01:31:04;54.08;;;23.23;;
2546;SDS011;1283;47.982;7.834;2024-01-10T01:33:30;48.65;;;21.67;;
2546;SDS011;1283;47.982;7.834;2024-01-10T01:35:57;51.17;;;21.80;;
2546;SDS011;1283;47.982;7.834;2024-01-10T01:38:25;59.03;;;23.05;;
2546;SDS011;1283;47.982;7.834;2024-01-10T01:40:52;52.65;;;23.92;;
2546;SDS011;1283;47.982;7.834;2024-01-10T01:43:19;57.17;;;23.23;;
2546;SDS011;1283;47.982;7.834;2024-01-10T01:45:46;50.50;;;22.27;;
2546;SDS011;1283;47.982;7.834;2024-01-10T01:48:13;56.22;;;23.48;;
2546;SDS011;1283;47.982;7.834;2024-01-10T01:50:40;55.33;;;22.65;;
2546;SDS011;1283;47.982;7.834;2024-01-10T01:53:06;52.70;;;22.67;;
2546;SDS011;1283;47.982;7.834;2024-01-10T01:55:34;55.78;;;22.27;;
2546;SDS011;1283;47.982;7.834;2024-01-10T01:58:01;47.60;;;21.95;;
2546;SDS011;1283;47.982;7.834;2024-01-10T02:00:28;55.97;;;23.92;;
2546;SDS011;1283;47.982;7.834;2024-01-10T02:02:55;47.65;;;22.45;;
2546;SDS011;1283;47.982;7.834;2024-01-10T02:05:23;52.75;;;24.88;;
2546;SDS011;1283;47.982;7.834;2024-01-10T02:07:49;56.67;;;23.90;;
2546;SDS011;1283;47.982;7.834;2024-01-10T02:10:16;50.70;;;23.13;;
2546;SDS011;1283;47.982;7.834;2024-01-10T02:12:43;60.78;;;24.00;;
2546;SDS011;1283;47.982;7.834;2024-01-10T02:15:10;57.50;;;23.48;;
2546;SDS011;1283;47.982;7.834;2024-01-10T02:17:37;56.30;;;23.08;;
2546;SDS011;1283;47.982;7.834;2024-01-10T02:20:09;54.75;;;23.23;;
2546;SDS011;1283;47.982;7.834;2024-01-10T02:22:36;56.90;;;22.63;;
2546;SDS011;1283;47.982;7.834;2024-01-10T02:25:04;57.55;;;23.38;;
2546;SDS011;1283;47.982;7.834;2024-01-10T02:27:31;55.28;;;25.00;;
2546;SDS011;1283;47.982;7.834;2024-01-10T02:29:58;53.85;;;22.48;;
2546;SDS011;1283;47.982;7.834;2024-01-10T02:32:25;62.28;;;24.42;;
2546;SDS011;1283;47.982;7.834;2024-01-10T02:34:51;58.95;;;24.02;;
2546;SDS011;1283;47.982;7.834;2024-01-10T02:37:17;56.65;;;23.20;;
2546;SDS011;1283;47.982;7.834;2024-01-10T02:39:44;54.85;;;24.67;;
2546;SDS011;1283;47.982;7.834;2024-01-10T02:42:12;54.58;;;24.88;;
2546;SDS011;1283;47.982;7.834;2024-01-10T02:44:38;56.33;;;23.88;;
2546;SDS011;1283;47.982;7.834;2024-01-10T02:47:05;53.20;;;23.13;;
2546;SDS011;1283;47.982;7.834;2024-01-10T02:49:32;61.42;;;24.83;;
2546;SDS011;1283;47.982;7.834;2024-01-10T02:51:58;64.60;;;25.70;;
2546;SDS011;1283;47.982;7.834;2024-01-10T02:54:25;58.60;;;24.52;;
2546;SDS011;1283;47.982;7.834;2024-01-10T02:56:51;58.05;;;24.63;;
2546;SDS011;1283;47.982;7.834;2024-01-10T02:59:19;60.53;;;24.25;;
2546;SDS011;1283;47.982;7.834;2024-01-10T03:01:46;58.90;;;24.25;;
2546;SDS011;1283;47.982;7.834;2024-01-10T03:04:12;60.28;;;24.90;;
2546;SDS011;1283;47.982;7.834;2024-01-10T03:06:39;51.33;;;22.45;;
2546;SDS011;1283;47.982;7.834;2024-01-10T03:09:06;54.88;;;23.38;;
2546;SDS011;1283;47.982;7.834;2024-01-10T03:11:32;63.08;;;23.73;;
2546;SDS011;1283;47.982;7.834;2024-01-10T03:14:00;57.72;;;25.05;;
2546;SDS011;1283;47.982;7.834;2024-01-10T03:16:30;56.95;;;23.30;;
2546;SDS011;1283;47.982;7.834;2024-01-10T03:18:56;60.45;;;23.38;;
2546;SDS011;1283;47.982;7.834;2024-01-10T03:21:23;61.35;;;24.30;;
2546;SDS011;1283;47.982;7.834;2024-01-10T03:23:51;57.78;;;23.20;;
2546;SDS011;1283;47.982;7.834;2024-01-10T03:26:18;51.78;;;22.95;;
2546;SDS011;1283;47.982;7.834;2024-01-10T03:28:44;54.20;;;22.10;;
2546;SDS011;1283;47.982;7.834;2024-01-10T03:31:10;54.28;;;23.33;;
2546;SDS011;1283;47.982;7.834;2024-01-10T03:33:38;52.33;;;22.75;;
2546;SDS011;1283;47.982;7.834;2024-01-10T03:36:05;56.90;;;24.92;;
2546;SDS011;1283;47.982;7.834;2024-01-10T03:38:32;61.20;;;25.08;;
2546;SDS011;1283;47.982;7.834;2024-01-10T03:40:58;59.83;;;24.83;;
2546;SDS011;1283;47.982;7.834;2024-01-10T03:43:25;60.65;;;26.27;;
2546;SDS011;1283;47.982;7.834;2024-01-10T03:45:51;56.47;;;24.80;;
2546;SDS011;1283;47.982;7.834;2024-01-10T03:48:18;61.03;;;24.25;;
2546;SDS011;1283;47.982;7.834;2024-01-10T03:50:46;61.35;;;25.85;;
2546;SDS011;1283;47.982;7.834;2024-01-10T03:53:12;56.42;;;24.00;;
2546;SDS011;1283;47.982;7.834;2024-01-10T03:55:39;53.70;;;23.85;;
2546;SDS011;1283;47.982;7.834;2024-01-10T03:58:05;51.88;;;23.88;;
2546;SDS011;1283;47.982;7.834;2024-01-10T04:00:32;59.15;;;25.52;;
2546;SDS011;1283;47.982;7.834;2024-01-10T04:02:58;61.67;;;24.25;;
2546;SDS011;1283;47.982;7.834;2024-01-10T04:05:25;59.67;;;24.30;;
2546;SDS011;1283;47.982;7.834;2024-01-10T04:07:52;60.67;;;24.45;;
2546;SDS011;1283;47.982;7.834;2024-01-10T04:10:21;67.38;;;25.17;;
2546;SDS011;1283;47.982;7.834;2024-01-10T04:12:48;59.85;;;24.88;;
2546;SDS011;1283;47.982;7.834;2024-01-10T04:15:15;63.03;;;24.40;;
2546;SDS011;1283;47.982;7.834;2024-01-10T04:17:42;54.53;;;23.95;;
2546;SDS011;1283;47.982;7.834;2024-01-10T04:20:09;60.08;;;24.73;;
2546;SDS011;1283;47.982;7.834;2024-01-10T04:22:36;60.92;;;25.48;;
2546;SDS011;1283;47.982;7.834;2024-01-10T04:25:05;67.15;;;26.02;;
2546;SDS011;1283;47.982;7.834;2024-01-10T04:27:32;62.33;;;24.85;;
2546;SDS011;1283;47.982;7.834;2024-01-10T04:29:59;59.88;;;23.30;;
2546;SDS011;1283;47.982;7.834;2024-01-10T04:32:25;60.00;;;24.42;;
2546;SDS011;1283;47.982;7.834;2024-01-10T04:34:52;60.80;;;24.95;;
2546;SDS011;1283;47.982;7.834;2024-01-10T04:37:18;62.53;;;25.17;;
2546;SDS011;1283;47.982;7.834;2024-01-10T04:39:45;61.30;;;24.90;;
2546;SDS011;1283;47.982;7.834;2024-01-10T04:42:13;56.08;;;24.35;;
2546;SDS011;1283;47.982;7.834;2024-01-10T04:44:40;66.38;;;25.05;;
2546;SDS011;1283;47.982;7.834;2024-01-10T04:47:07;61.33;;;26.08;;
2546;SDS011;1283;47.982;7.834;2024-01-10T04:49:33;62.30;;;25.13;;
2546;SDS011;1283;47.982;7.834;2024-01-10T04:52:00;64.00;;;27.20;;
2546;SDS011;1283;47.982;7.834;2024-01-10T04:54:26;64.40;;;24.50;;
2546;SDS011;1283;47.982;7.834;2024-01-10T04:56:52;57.88;;;23.70;;
2546;SDS011;1283;47.982;7.834;2024-01-10T04:59:20;61.83;;;24.13;;
2546;SDS011;1283;47.982;7.834;2024-01-10T05:01:47;52.97;;;23.08;;
2546;SDS011;1283;47.982;7.834;2024-01-10T05:04:13;57.47;;;22.98;;
2546;SDS011;1283;47.982;7.834;2024-01-10T05:06:40;63.50;;;24.92;;
2546;SDS011;1283;47.982;7.834;2024-01-10T05:09:06;58.33;;;25.05;;
2546;SDS011;1283;47.982;7.834;2024-01-10T05:11:33;62.65;;;24.23;;
2546;SDS011;1283;47.982;7.834;2024-01-10T05:14:00;52.92;;;22.63;;
2546;SDS011;1283;47.982;7.834;2024-01-10T05:16:29;60.95;;;24.88;;
2546;SDS011;1283;47.982;7.834;2024-01-10T05:18:56;60.90;;;24.75;;
2546;SDS011;1283;47.982;7.834;2024-01-10T05:21:23;59.92;;;25.25;;
2546;SDS011;1283;47.982;7.834;2024-01-10T05:23:49;59.75;;;25.48;;
2546;SDS011;1283;47.982;7.834;2024-01-10T05:26:15;59.55;;;24.25;;
2546;SDS011;1283;47.982;7.834;2024-01-10T05:28:42;60.85;;;24.25;;
2546;SDS011;1283;47.982;7.834;2024-01-10T05:31:08;60.10;;;25.02;;
2546;SDS011;1283;47.982;7.834;2024-01-10T05:33:36;64.50;;;24.55;;
2546;SDS011;1283;47.982;7.834;2024-01-10T05:36:03;61.53;;;23.02;;
2546;SDS011;1283;47.982;7.834;2024-01-10T05:38:29;54.92;;;25.15;;
2546;SDS011;1283;47.982;7.834;2024-01-10T05:40:55;55.47;;;24.13;;
2546;SDS011;1283;47.982;7.834;2024-01-10T05:43:22;55.45;;;24.38;;
2546;SDS011;1283;47.982;7.834;2024-01-10T05:45:48;57.70;;;24.83;;
2546;SDS011;1283;47.982;7.834;2024-01-10T05:48:15;58.80;;;23.48;;
2546;SDS011;1283;47.982;7.834;2024-01-10T05:50:43;60.67;;;24.10;;
2546;SDS011;1283;47.982;7.834;2024-01-10T05:53:10;56.60;;;23.95;;
2546;SDS011;1283;47.982;7.834;2024-01-10T05:55:39;54.00;;;22.50;;
2546;SDS011;1283;47.982;7.834;2024-01-10T05:58:05;58.20;;;23.42;;
2546;SDS011;1283;47.982;7.834;2024-01-10T06:00:32;58.03;;;25.33;;
2546;SDS011;1283;47.982;7.834;2024-01-10T06:02:58;59.72;;;25.13;;
2546;SDS011;1283;47.982;7.834;2024-01-10T06:05:25;65.30;;;25.67;;
2546;SDS011;1283;47.982;7.834;2024-01-10T06:07:52;59.58;;;24.08;;
2546;SDS011;1283;47.982;7.834;2024-01-10T06:10:19;60.22;;;24.70;;
2546;SDS011;1283;47.982;7.834;2024-01-10T06:12:45;54.80;;;23.42;;
2546;SDS011;1283;47.982;7.834;2024-01-10T06:15:12;62.63;;;24.92;;
2546;SDS011;1283;47.982;7.834;2024-01-10T06:17:38;61.13;;;25.08;;
2546;SDS011;1283;47.982;7.834;2024-01-10T06:20:05;59.13;;;22.80;;
2546;SDS011;1283;47.982;7.834;2024-01-10T06:22:32;63.92;;;25.02;;
2546;SDS011;1283;47.982;7.834;2024-01-10T06:25:00;58.97;;;24.30;;
2546;SDS011;1283;47.982;7.834;2024-01-10T06:27:27;58.03;;;24.50;;
2546;SDS011;1283;47.982;7.834;2024-01-10T06:29:53;59.20;;;23.90;;
2546;SDS011;1283;47.982;7.834;2024-01-10T06:32:20;56.15;;;24.23;;
2546;SDS011;1283;47.982;7.834;2024-01-10T06:34:46;54.75;;;23.60;;
2546;SDS011;1283;47.982;7.834;2024-01-10T06:37:13;58.38;;;25.25;;
2546;SDS011;1283;47.982;7.834;2024-01-10T06:39:39;63.25;;;25.33;;
2546;SDS011;1283;47.982;7.834;2024-01-10T06:42:10;65.55;;;25.38;;
2546;SDS011;1283;47.982;7.834;2024-01-10T06:44:37;63.55;;;26.42;;
2546;SDS011;1283;47.982;7.834;2024-01-10T06:47:03;62.08;;;25.33;;
2546;SDS011;1283;47.982;7.834;2024-01-10T06:49:30;62.05;;;24.13;;
2546;SDS011;1283;47.982;7.834;2024-01-10T06:51:56;55.40;;;23.52;;
2546;SDS011;1283;47.982;7.834;2024-01-10T06:54:23;60.72;;;25.58;;
2546;SDS011;1283;47.982;7.834;2024-01-10T06:56:50;56.20;;;25.88;;
2546;SDS011;1283;47.982;7.834;2024-01-10T06:59:18;57.40;;;24.33;;
2546;SDS011;1283;47.982;7.834;2024-01-10T07:01:45;62.50;;;24.85;;
2546;SDS011;1283;47.982;7.834;2024-01-10T07:04:11;58.03;;;24.88;;
2546;SDS011;1283;47.982;7.834;2024-01-10T07:06:37;57.50;;;25.90;;
2546;SDS011;1283;47.982;7.834;2024-01-10T07:09:04;61.55;;;24.98;;
2546;SDS011;1283;47.982;7.834;2024-01-10T07:11:31;62.28;;;24.88;;
2546;SDS011;1283;47.982;7.834;2024-01-10T07:13:57;66.82;;;26.75;;
2546;SDS011;1283;47.982;7.834;2024-01-10T07:16:25;58.08;;;26.23;;
2546;SDS011;1283;47.982;7.834;2024-01-10T07:18:52;66.85;;;26.50;;
2546;SDS011;1283;47.982;7.834;2024-01-10T07:21:18;61.50;;;26.75;;
2546;SDS011;1283;47.982;7.834;2024-01-10T07:23:44;66.25;;;26.27;;
2546;SDS011;1283;47.982;7.834;2024-01-10T07:26:12;61.08;;;24.85;;
2546;SDS011;1283;47.982;7.834;2024-01-10T07:28:40;59.60;;;24.65;;
2546;SDS011;1283;47.982;7.834;2024-01-10T07:31:06;65.22;;;26.42;;
2546;SDS011;1283;47.982;7.834;2024-01-10T07:33:34;64.85;;;25.83;;
2546;SDS011;1283;47.982;7.834;2024-01-10T07:36:01;62.42;;;25.70;;
2546;SDS011;1283;47.982;7.834;2024-01-10T07:38:27;62.25;;;25.08;;
2546;SDS011;1283;47.982;7.834;2024-01-10T07:40:53;66.82;;;27.15;;
2546;SDS011;1283;47.982;7.834;2024-01-10T07:43:20;60.75;;;25.15;;
2546;SDS011;1283;47.982;7.834;2024-01-10T07:45:46;62.58;;;25.73;;
2546;SDS011;1283;47.982;7.834;2024-01-10T07:48:13;62.00;;;25.50;;
2546;SDS011;1283;47.982;7.834;2024-01-10T07:50:41;65.22;;;26.35;;
2546;SDS011;1283;47.982;7.834;2024-01-10T07:53:07;68.70;;;27.92;;
2546;SDS011;1283;47.982;7.834;2024-01-10T07:55:34;61.47;;;26.15;;
2546;SDS011;1283;47.982;7.834;2024-01-10T07:58:00;69.32;;;26.40;;
2546;SDS011;1283;47.982;7.834;2024-01-10T08:00:27;69.15;;;26.95;;
2546;SDS011;1283;47.982;7.834;2024-01-10T08:02:55;68.70;;;26.95;;
2546;SDS011;1283;47.982;7.834;2024-01-10T08:05:21;66.10;;;27.30;;
2546;SDS011;1283;47.982;7.834;2024-01-10T08:07:49;70.57;;;28.08;;
2546;SDS011;1283;47.982;7.834;2024-01-10T08:10:16;70.80;;;27.27;;
2546;SDS011;1283;47.982;7.834;2024-01-10T08:12:42;66.82;;;27.23;;
2546;SDS011;1283;47.982;7.834;2024-01-10T08:15:09;70.88;;;28.38;;
2546;SDS011;1283;47.982;7.834;2024-01-10T08:17:36;78.40;;;28.23;;
2546;SDS011;1283;47.982;7.834;2024-01-10T08:20:03;64.78;;;27.38;;
2546;SDS011;1283;47.982;7.834;2024-01-10T08:22:31;73.38;;;28.98;;
2546;SDS011;1283;47.982;7.834;2024-01-10T08:24:59;65.55;;;27.23;;
2546;SDS011;1283;47.982;7.834;2024-01-10T08:27:25;68.28;;;27.65;;
2546;SDS011;1283;47.982;7.834;2024-01-10T08:29:52;74.15;;;27.98;;
2546;SDS011;1283;47.982;7.834;2024-01-10T08:32:18;70.00;;;28.42;;
2546;SDS011;1283;47.982;7.834;2024-01-10T08:34:46;67.72;;;27.17;;
2546;SDS011;1283;47.982;7.834;2024-01-10T08:37:13;75.30;;;29.38;;
2546;SDS011;1283;47.982;7.834;2024-01-10T08:39:42;71.57;;;27.55;;
2546;SDS011;1283;47.982;7.834;2024-01-10T08:42:10;68.95;;;27.65;;
2546;SDS011;1283;47.982;7.834;2024-01-10T08:44:37;64.35;;;26.85;;
2546;SDS011;1283;47.982;7.834;2024-01-10T08:47:03;62.95;;;26.60;;
2546;SDS011;1283;47.982;7.834;2024-01-10T08:49:29;61.05;;;26.75;;
2546;SDS011;1283;47.982;7.834;2024-01-10T08:51:56;64.35;;;26.58;;
2546;SDS011;1283;47.982;7.834;2024-01-10T08:54:22;66.57;;;28.30;;
2546;SDS011;1283;47.982;7.834;2024-01-10T08:56:50;70.30;;;27.05;;
2546;SDS011;1283;47.982;7.834;2024-01-10T08:59:18;67.47;;;27.15;;
2546;SDS011;1283;47.982;7.834;2024-01-10T09:01:44;54.85;;;24.02;;
2546;SDS011;1283;47.982;7.834;2024-01-10T09:04:11;65.07;;;26.30;;
2546;SDS011;1283;47.982;7.834;2024-01-10T09:06:38;57.50;;;24.80;;
2546;SDS011;1283;47.982;7.834;2024-01-10T09:09:04;61.75;;;26.20;;
2546;SDS011;1283;47.982;7.834;2024-01-10T09:11:31;58.35;;;26.83;;
2546;SDS011;1283;47.982;7.834;2024-01-10T09:13:57;68.75;;;27.30;;
2546;SDS011;1283;47.982;7.834;2024-01-10T09:16:25;65.53;;;27.52;;
2546;SDS011;1283;47.982;7.834;2024-01-10T09:18:52;57.67;;;25.40;;
2546;SDS011;1283;47.982;7.834;2024-01-10T09:21:21;65.75;;;25.85;;
2546;SDS011;1283;47.982;7.834;2024-01-10T09:23:48;62.40;;;26.00;;
2546;SDS011;1283;47.982;7.834;2024-01-10T09:26:16;61.50;;;25.58;;
2546;SDS011;1283;47.982;7.834;2024-01-10T09:28:42;68.05;;;27.15;;
2546;SDS011;1283;47.982;7.834;2024-01-10T09:31:09;62.70;;;27.00;;
2546;SDS011;1283;47.982;7.834;2024-01-10T09:33:37;64.22;;;25.33;;
2546;SDS011;1283;47.982;7.834;2024-01-10T09:36:03;64.60;;;25.52;;
2546;SDS011;1283;47.982;7.834;2024-01-10T09:38:34;60.63;;;25.45;;
2546;SDS011;1283;47.982;7.834;2024-01-10T09:41:01;62.80;;;26.30;;
2546;SDS011;1283;47.982;7.834;2024-01-10T09:43:29;65.47;;;26.92;;
2546;SDS011;1283;47.982;7.834;2024-01-10T09:45:56;63.88;;;26.05;;
2546;SDS011;1283;47.982;7.834;2024-01-10T09:48:23;58.30;;;25.63;;
2546;SDS011;1283;47.982;7.834;2024-01-10T09:50:51;61.22;;;25.38;;
2546;SDS011;1283;47.982;7.834;2024-01-10T09:53:21;64.60;;;27.17;;
2546;SDS011;1283;47.982;7.834;2024-01-10T09:55:48;64.18;;;26.15;;
2546;SDS011;1283;47.982;7.834;2024-01-10T09:58:15;59.10;;;26.17;;
2546;SDS011;1283;47.982;7.834;2024-01-10T10:00:42;64.38;;;27.70;;
2546;SDS011;1283;47.982;7.834;2024-01-10T10:03:09;67.00;;;26.13;;
2546;SDS011;1283;47.982;7.834;2024-01-10T10:05:37;62.28;;;26.35;;
2546;SDS011;1283;47.982;7.834;2024-01-10T10:08:07;63.22;;;26.73;;
2546;SDS011;1283;47.982;7.834;2024-01-10T10:10:38;57.67;;;24.98;;
2546;SDS011;1283;47.982;7.834;2024-01-10T10:13:08;61.42;;;24.08;;
2546;SDS011;1283;47.982;7.834;2024-01-10T10:15:36;63.90;;;26.55;;
2546;SDS011;1283;47.982;7.834;2024-01-10T10:18:03;65.18;;;26.30;;
2546;SDS011;1283;47.982;7.834;2024-01-10T10:20:30;66.65;;;26.58;;
2546;SDS011;1283;47.982;7.834;2024-01-10T10:22:58;64.32;;;27.40;;
2546;SDS011;1283;47.982;7.834;2024-01-10T10:25:28;59.65;;;25.95;;
2546;SDS011;1283;47.982;7.834;2024-01-10T10:27:56;60.40;;;25.70;;
2546;SDS011;1283;47.982;7.834;2024-01-10T10:30:22;60.25;;;25.40;;
2546;SDS011;1283;47.982;7.834;2024-01-10T10:32:48;63.78;;;27.27;;
2546;SDS011;1283;47.982;7.834;2024-01-10T10:35:15;56.65;;;26.10;;
2546;SDS011;1283;47.982;7.834;2024-01-10T10:37:42;54.17;;;24.58;;
2546;SDS011;1283;47.982;7.834;2024-01-10T10:40:08;62.33;;;26.95;;
2546;SDS011;1283;47.982;7.834;2024-01-10T10:42:37;64.72;;;26.10;;
2546;SDS011;1283;47.982;7.834;2024-01-10T10:45:06;63.33;;;27.52;;
2546;SDS011;1283;47.982;7.834;2024-01-10T10:47:36;65.90;;;26.77;;
2546;SDS011;1283;47.982;7.834;2024-01-10T10:50:03;56.60;;;24.83;;
2546;SDS011;1283;47.982;7.834;2024-01-10T10:52:31;70.47;;;28.02;;
2546;SDS011;1283;47.982;7.834;2024-01-10T10:54:58;65.32;;;25.98;;
2546;SDS011;1283;47.982;7.834;2024-01-10T10:57:25;65.57;;;25.92;;
2546;SDS011;1283;47.982;7.834;2024-01-10T10:59:54;69.63;;;28.40;;
2546;SDS011;1283;47.982;7.834;2024-01-10T11:02:21;59.13;;;25.98;;
2546;SDS011;1283;47.982;7.834;2024-01-10T11:04:49;64.32;;;25.77;;
2546;SDS011;1283;47.982;7.834;2024-01-10T11:07:16;66.03;;;27.48;;
2546;SDS011;1283;47.982;7.834;2024-01-10T11:09:42;63.17;;;26.17;;
2546;SDS011;1283;47.982;7.834;2024-01-10T11:12:15;58.85;;;25.58;;
2546;SDS011;1283;47.982;7.834;2024-01-10T11:14:52;63.13;;;25.95;;
2546;SDS011;1283;47.982;7.834;2024-01-10T11:17:39;57.53;;;26.13;;
2546;SDS011;1283;47.982;7.834;2024-01-10T11:20:15;57.72;;;24.52;;
2546;SDS011;1283;47.982;7.834;2024-01-10T11:22:59;65.00;;;25.85;;
2546;SDS011;1283;47.982;7.834;2024-01-10T11:25:35;58.53;;;24.23;;
2546;SDS011;1283;47.982;7.834;2024-01-10T11:28:02;57.28;;;25.02;;
2546;SDS011;1283;47.982;7.834;2024-01-10T11:30:36;61.90;;;25.88;;
2546;SDS011;1283;47.982;7.834;2024-01-10T11:33:19;64.93;;;23.45;;
2546;SDS011;1283;47.982;7.834;2024-01-10T11:38:41;49.83;;;22.67;;
2546;SDS011;1283;47.982;7.834;2024-01-10T11:41:10;55.95;;;23.80;;
2546;SDS011;1283;47.982;7.834;2024-01-10T11:43:37;55.15;;;24.08;;
2546;SDS011;1283;47.982;7.834;2024-01-10T11:46:05;54.72;;;23.13;;
2546;SDS011;1283;47.982;7.834;2024-01-10T11:48:32;48.88;;;23.67;;
2546;SDS011;1283;47.982;7.834;2024-01-10T11:50:59;54.78;;;22.60;;
2546;SDS011;1283;47.982;7.834;2024-01-10T11:53:42;46.78;;;22.02;;
2546;SDS011;1283;47.982;7.834;2024-01-10T11:56:11;51.60;;;21.63;;
2546;SDS011;1283;47.982;7.834;2024-01-10T11:58:52;45.75;;;22.30;;
2546;SDS011;1283;47.982;7.834;2024-01-10T12:01:21;56.45;;;23.27;;
2546;SDS011;1283;47.982;7.834;2024-01-10T12:03:49;44.55;;;21.38;;
2546;SDS011;1283;47.982;7.834;2024-01-10T12:06:17;56.70;;;23.48;;
2546;SDS011;1283;47.982;7.834;2024-01-10T12:08:45;60.17;;;23.27;;
2546;SDS011;1283;47.982;7.834;2024-01-10T12:11:11;55.08;;;23.23;;
2546;SDS011;1283;47.982;7.834;2024-01-10T12:13:38;51.33;;;22.45;;
2546;SDS011;1283;47.982;7.834;2024-01-10T12:16:04;57.95;;;23.15;;
2546;SDS011;1283;47.982;7.834;2024-01-10T12:18:32;46.72;;;21.65;;
2546;SDS011;1283;47.982;7.834;2024-01-10T12:20:59;45.83;;;22.13;;
2546;SDS011;1283;47.982;7.834;2024-01-10T12:23:26;47.25;;;21.98;;
2546;SDS011;1283;47.982;7.834;2024-01-10T12:25:56;43.05;;;21.10;;
2546;SDS011;1283;47.982;7.834;2024-01-10T12:28:22;55.60;;;21.50;;
2546;SDS011;1283;47.982;7.834;2024-01-10T12:30:49;50.92;;;21.40;;
2546;SDS011;1283;47.982;7.834;2024-01-10T12:33:16;43.85;;;20.25;;
2546;SDS011;1283;47.982;7.834;2024-01-10T12:35:44;43.42;;;20.77;;
2546;SDS011;1283;47.982;7.834;2024-01-10T12:38:10;42.90;;;20.52;;
2546;SDS011;1283;47.982;7.834;2024-01-10T12:40:37;47.25;;;19.95;;
2546;SDS011;1283;47.982;7.834;2024-01-10T12:43:04;44.47;;;21.33;;
2546;SDS011;1283;47.982;7.834;2024-01-10T12:45:30;46.38;;;20.90;;
2546;SDS011;1283;47.982;7.834;2024-01-10T12:47:57;46.70;;;20.77;;
2546;SDS011;1283;47.982;7.834;2024-01-10T12:50:23;41.55;;;20.23;;
2546;SDS011;1283;47.982;7.834;2024-01-10T12:52:52;46.17;;;21.40;;
2546;SDS011;1283;47.982;7.834;2024-01-10T12:55:18;43.67;;;19.65;;
2546;SDS011;1283;47.982;7.834;2024-01-10T12:57:45;43.55;;;20.73;;
2546;SDS011;1283;47.982;7.834;2024-01-10T13:00:11;46.20;;;20.90;;
2546;SDS011;1283;47.982;7.834;2024-01-10T13:02:39;44.78;;;20.80;;
2546;SDS011;1283;47.982;7.834;2024-01-10T13:05:06;54.25;;;23.23;;
2546;SDS011;1283;47.982;7.834;2024-01-10T13:07:34;45.33;;;21.50;;
2546;SDS011;1283;47.982;7.834;2024-01-10T13:10:02;43.92;;;20.13;;
2546;SDS011;1283;47.982;7.834;2024-01-10T13:12:29;47.30;;;21.33;;
2546;SDS011;1283;47.982;7.834;2024-01-10T13:14:56;44.72;;;20.58;;
2546;SDS011;1283;47.982;7.834;2024-01-10T13:17:22;45.95;;;20.73;;
2546;SDS011;1283;47.982;7.834;2024-01-10T13:19:49;47.22;;;20.05;;
2546;SDS011;1283;47.982;7.834;2024-01-10T13:22:15;46.75;;;20.15;;
2546;SDS011;1283;47.982;7.834;2024-01-10T13:24:44;43.30;;;20.50;;
2546;SDS011;1283;47.982;7.834;2024-01-10T13:27:12;45.75;;;20.45;;
2546;SDS011;1283;47.982;7.834;2024-01-10T13:29:39;42.60;;;19.85;;
2546;SDS011;1283;47.982;7.834;2024-01-10T13:32:06;46.45;;;20.25;;
2546;SDS011;1283;47.982;7.834;2024-01-10T13:34:35;43.10;;;19.25;;
2546;SDS011;1283;47.982;7.834;2024-01-10T13:37:02;42.35;;;19.67;;
2546;SDS011;1283;47.982;7.834;2024-01-10T13:39:29;46.58;;;19.98;;
2546;SDS011;1283;47.982;7.834;2024-01-10T13:41:56;43.42;;;21.23;;
2546;SDS011;1283;47.982;7.834;2024-01-10T13:44:24;43.83;;;21.48;;
2546;SDS011;1283;47.982;7.834;2024-01-10T13:46:50;41.65;;;19.67;;
2546;SDS011;1283;47.982;7.834;2024-01-10T13:49:16;43.55;;;21.10;;
2546;SDS011;1283;47.982;7.834;2024-01-10T13:51:43;45.30;;;21.55;;
2546;SDS011;1283;47.982;7.834;2024-01-10T13:54:09;47.25;;;22.48;;
2546;SDS011;1283;47.982;7.834;2024-01-10T13:56:36;44.70;;;22.05;;
2546;SDS011;1283;47.982;7.834;2024-01-10T13:59:04;46.85;;;20.67;;
2546;SDS011;1283;47.982;7.834;2024-01-10T14:01:32;47.63;;;21.73;;
2546;SDS011;1283;47.982;7.834;2024-01-10T14:03:58;44.15;;;21.35;;
2546;SDS011;1283;47.982;7.834;2024-01-10T14:06:25;46.50;;;21.00;;
2546;SDS011;1283;47.982;7.834;2024-01-10T14:08:52;44.10;;;22.15;;
2546;SDS011;1283;47.982;7.834;2024-01-10T14:11:18;48.08;;;20.77;;
2546;SDS011;1283;47.982;7.834;2024-01-10T14:13:45;49.35;;;21.88;;
2546;SDS011;1283;47.982;7.834;2024-01-10T14:16:11;46.20;;;21.08;;
2546;SDS011;1283;47.982;7.834;2024-01-10T14:18:39;48.97;;;23.05;;
2546;SDS011;1283;47.982;7.834;2024-01-10T14:21:06;43.10;;;21.05;;
2546;SDS011;1283;47.982;7.834;2024-01-10T14:23:32;47.60;;;22.40;;
2546;SDS011;1283;47.982;7.834;2024-01-10T14:25:59;47.72;;;21.15;;
2546;SDS011;1283;47.982;7.834;2024-01-10T14:28:25;43.15;;;20.20;;
2546;SDS011;1283;47.982;7.834;2024-01-10T14:30:52;45.83;;;20.52;;
2546;SDS011;1283;47.982;7.834;2024-01-10T14:33:18;45.53;;;20.48;;
2546;SDS011;1283;47.982;7.834;2024-01-10T14:35:46;39.75;;;19.88;;
2546;SDS011;1283;47.982;7.834;2024-01-10T14:38:13;48.80;;;22.17;;
2546;SDS011;1283;47.982;7.834;2024-01-10T14:40:39;45.17;;;21.95;;
2546;SDS011;1283;47.982;7.834;2024-01-10T14:43:05;47.63;;;22.48;;
2546;SDS011;1283;47.982;7.834;2024-01-10T14:45:32;49.33;;;24.05;;
2546;SDS011;1283;47.982;7.834;2024-01-10T14:47:58;43.40;;;20.30;;
2546;SDS011;1283;47.982;7.834;2024-01-10T14:50:25;46.42;;;21.05;;